createdAt,value
2019-04-04T00:01:40.006Z,15.00
2019-04-04T00:04:12.499Z,14.20
2019-04-04T00:06:45.109Z,14.83
2019-04-04T00:09:17.499Z,14.50
2019-04-04T00:11:49.876Z,14.13
2019-04-04T00:14:22.195Z,14.40
2019-04-04T00:16:55.128Z,14.23
2019-04-04T00:19:27.857Z,14.00
2019-04-04T00:22:02.941Z,13.70
2019-04-04T00:24:35.827Z,14.07
2019-04-04T00:27:08.419Z,14.43
2019-04-04T00:29:40.968Z,13.93
2019-04-04T00:32:13.323Z,14.47
2019-04-04T00:34:45.685Z,14.90
2019-04-04T00:37:18.154Z,14.47
2019-04-04T00:39:50.385Z,14.37
2019-04-04T00:42:22.693Z,13.70
2019-04-04T00:44:55.808Z,15.17
2019-04-04T00:47:28.987Z,14.37
2019-04-04T00:50:01.433Z,14.80
2019-04-04T00:52:33.870Z,14.73
2019-04-04T00:55:06.354Z,14.20
2019-04-04T00:57:38.782Z,14.83
2019-04-04T01:00:11.258Z,14.80
2019-04-04T01:02:43.969Z,15.23
2019-04-04T01:05:16.563Z,14.90
2019-04-04T01:07:48.883Z,14.83
2019-04-04T01:10:21.312Z,15.27
2019-04-04T01:12:53.837Z,15.07
2019-04-04T01:15:26.356Z,16.37
2019-04-04T01:17:58.760Z,16.37
2019-04-04T01:20:31.381Z,16.40
2019-04-04T01:23:04.034Z,14.90
2019-04-04T01:25:36.372Z,14.97
2019-04-04T01:28:08.768Z,15.13
2019-04-04T01:30:41.717Z,16.10
2019-04-04T01:33:16.280Z,15.60
2019-04-04T01:35:48.645Z,15.03
2019-04-04T01:38:21.337Z,15.43
2019-04-04T01:40:55.080Z,14.40
2019-04-04T01:43:27.552Z,15.73
2019-04-04T01:45:59.886Z,15.23
2019-04-04T01:48:32.260Z,15.33
2019-04-04T01:51:07.711Z,16.10
2019-04-04T01:53:39.087Z,15.60
2019-04-04T01:56:11.440Z,14.70
2019-04-04T01:58:44.055Z,14.80
2019-04-04T02:01:17.085Z,15.50
2019-04-04T02:03:49.479Z,16.07
2019-04-04T02:06:21.897Z,15.20
2019-04-04T02:08:54.468Z,13.93
2019-04-04T02:11:26.683Z,16.00
2019-04-04T02:13:59.087Z,15.57
2019-04-04T02:16:31.467Z,15.47
2019-04-04T02:19:03.852Z,15.33
2019-04-04T02:21:36.130Z,14.97
2019-04-04T02:24:08.327Z,14.60
2019-04-04T02:26:40.802Z,15.73
2019-04-04T02:29:13.505Z,15.10
2019-04-04T02:31:52.946Z,15.40
2019-04-04T02:34:23.804Z,15.33
2019-04-04T02:36:56.229Z,15.53
2019-04-04T02:39:28.669Z,15.63
2019-04-04T02:42:01.178Z,15.97
2019-04-04T02:44:33.579Z,16.53
2019-04-04T02:47:05.924Z,14.90
2019-04-04T02:49:38.245Z,15.10
2019-04-04T02:52:13.204Z,16.17
2019-04-04T02:54:45.242Z,15.80
2019-04-04T02:57:17.695Z,16.17
2019-04-04T02:59:52.992Z,15.40
2019-04-04T03:02:24.358Z,14.80
2019-04-04T03:04:56.788Z,16.57
2019-04-04T03:07:31.001Z,16.27
2019-04-04T03:10:03.905Z,16.13
2019-04-04T03:12:36.361Z,17.40
2019-04-04T03:15:10.317Z,16.30
2019-04-04T03:17:42.693Z,16.00
2019-04-04T03:20:17.215Z,16.40
2019-04-04T03:22:49.189Z,15.70
2019-04-04T03:25:21.517Z,15.77
2019-04-04T03:27:55.515Z,15.50
2019-04-04T03:30:27.812Z,15.80
2019-04-04T03:33:00.273Z,15.83
2019-04-04T03:35:32.804Z,16.53
2019-04-04T03:38:04.993Z,15.97
2019-04-04T03:40:37.342Z,16.07
2019-04-04T03:43:09.753Z,15.87
2019-04-04T03:45:42.141Z,15.57
2019-04-04T03:48:17.410Z,15.47
2019-04-04T03:50:48.811Z,16.40
2019-04-04T03:53:22.067Z,15.37
2019-04-04T03:55:54.443Z,16.53
2019-04-04T03:58:28.027Z,16.33
2019-04-04T04:01:00.496Z,15.90
2019-04-04T04:03:32.846Z,15.30
2019-04-04T04:06:08.406Z,15.13
2019-04-04T04:08:39.397Z,15.10
2019-04-04T04:11:12.258Z,14.93
2019-04-04T04:13:48.890Z,14.53
2019-04-04T04:16:19.090Z,15.87
2019-04-04T04:18:53.897Z,15.63
2019-04-04T04:21:25.697Z,14.70
2019-04-04T04:23:58.258Z,16.10
2019-04-04T04:26:31.059Z,15.47
2019-04-04T04:29:03.842Z,16.07
2019-04-04T04:31:36.123Z,14.37
2019-04-04T04:34:08.665Z,15.00
2019-04-04T04:36:41.341Z,15.87
2019-04-04T04:39:14.035Z,15.80
2019-04-04T04:41:46.801Z,15.83
2019-04-04T04:44:19.191Z,16.27
2019-04-04T04:46:51.921Z,16.17
2019-04-04T04:49:24.469Z,15.63
2019-04-04T04:51:56.994Z,15.90
2019-04-04T04:54:29.277Z,16.30
2019-04-04T04:57:04.153Z,14.97
2019-04-04T04:59:35.875Z,16.10
2019-04-04T05:02:08.493Z,16.30
2019-04-04T05:04:40.724Z,16.27
2019-04-04T05:07:13.226Z,16.20
2019-04-04T05:09:45.756Z,15.40
2019-04-04T05:12:18.105Z,15.53
2019-04-04T05:14:50.427Z,15.47
2019-04-04T05:17:22.942Z,16.53
2019-04-04T05:19:55.669Z,15.70
2019-04-04T05:22:28.127Z,15.40
2019-04-04T05:25:07.869Z,15.27
2019-04-04T05:27:35.112Z,14.90
2019-04-04T05:30:09.049Z,16.37
2019-04-04T05:32:41.379Z,15.33
2019-04-04T05:35:15.154Z,16.00
2019-04-04T05:37:47.701Z,15.73
2019-04-04T05:40:23.244Z,16.27
2019-04-04T05:42:54.181Z,15.20
2019-04-04T05:45:26.580Z,14.70
2019-04-04T05:47:59.825Z,14.00
2019-04-04T05:50:32.230Z,16.10
2019-04-04T05:53:04.948Z,16.13
2019-04-04T05:55:37.290Z,15.80
2019-04-04T05:58:09.775Z,15.20
2019-04-04T06:00:45.195Z,16.27
2019-04-04T06:03:17.747Z,14.60
2019-04-04T06:05:50.159Z,16.00
2019-04-04T06:08:22.535Z,14.80
2019-04-04T06:10:54.987Z,16.00
2019-04-04T06:13:27.569Z,15.80
2019-04-04T06:16:00.047Z,15.03
2019-04-04T06:18:32.697Z,16.70
2019-04-04T06:21:05.087Z,14.80
2019-04-04T06:23:37.812Z,14.33
2019-04-04T06:26:10.066Z,15.87
2019-04-04T06:28:44.216Z,15.93
2019-04-04T06:31:16.541Z,17.07
2019-04-04T06:33:49.131Z,15.70
2019-04-04T06:36:21.486Z,16.07
2019-04-04T06:38:54.207Z,15.63
2019-04-04T06:41:28.094Z,15.93
2019-04-04T06:44:00.646Z,14.97
2019-04-04T06:46:33.139Z,16.30
2019-04-04T06:49:05.574Z,15.50
2019-04-04T06:51:37.927Z,15.23
2019-04-04T06:54:10.190Z,15.40
2019-04-04T06:56:46.604Z,16.07
2019-04-04T06:59:19.595Z,15.40
2019-04-04T07:01:53.288Z,16.03
2019-04-04T07:04:25.939Z,14.33
2019-04-04T07:06:59.103Z,15.10
2019-04-04T07:09:32.499Z,14.73
2019-04-04T07:12:06.788Z,14.77
2019-04-04T07:14:45.445Z,15.00
2019-04-04T07:17:16.317Z,14.27
2019-04-04T07:19:48.126Z,13.50
2019-04-04T07:22:24.425Z,13.97
2019-04-04T07:24:54.977Z,13.90
2019-04-04T07:27:27.336Z,15.57
2019-04-04T07:29:59.586Z,15.43
2019-04-04T07:32:31.919Z,14.67
2019-04-04T07:35:04.590Z,14.70
2019-04-04T07:37:36.930Z,14.77
2019-04-04T07:40:09.240Z,13.50
2019-04-04T07:42:41.904Z,13.20
2019-04-04T07:45:14.517Z,13.03
2019-04-04T07:47:47.799Z,13.00
2019-04-04T07:50:20.517Z,13.20
2019-04-04T07:52:52.753Z,13.43
2019-04-04T07:55:25.143Z,13.07
2019-04-04T07:57:57.804Z,12.87
2019-04-04T08:00:30.751Z,12.10
2019-04-04T08:03:03.723Z,13.20
2019-04-04T08:05:36.938Z,12.83
2019-04-04T08:08:09.622Z,13.37
2019-04-04T08:10:41.835Z,13.10
2019-04-04T08:13:14.351Z,12.27
2019-04-04T08:15:47.102Z,12.37
2019-04-04T08:18:19.342Z,12.63
2019-04-04T08:20:51.957Z,12.83
2019-04-04T08:23:25.252Z,13.03
2019-04-04T08:25:57.634Z,12.57
2019-04-04T08:28:30.100Z,11.90
2019-04-04T08:31:02.382Z,13.03
2019-04-04T08:33:34.766Z,13.67
2019-04-04T08:36:07.097Z,14.37
2019-04-04T08:38:39.425Z,15.03
2019-04-04T08:41:11.742Z,16.10
2019-04-04T08:43:43.975Z,22.60
2019-04-04T08:46:19.631Z,14.53
2019-04-04T08:48:50.591Z,13.37
2019-04-04T08:51:22.972Z,12.30
2019-04-04T08:53:55.238Z,13.53
2019-04-04T08:56:27.491Z,14.73
2019-04-04T08:59:00.164Z,13.27
2019-04-04T09:01:32.530Z,12.77
2019-04-04T09:04:04.859Z,12.93
2019-04-04T09:06:37.204Z,13.20
2019-04-04T09:09:09.642Z,12.90
2019-04-04T09:11:42.179Z,12.40
2019-04-04T09:14:14.386Z,12.60
2019-04-04T09:16:47.511Z,13.30
2019-04-04T09:19:20.099Z,11.73
2019-04-04T09:21:52.527Z,12.00
2019-04-04T09:24:25.056Z,11.80
2019-04-04T09:26:57.553Z,12.93
2019-04-04T09:29:31.082Z,11.57
2019-04-04T09:32:03.601Z,12.37
2019-04-04T09:34:36.565Z,12.60
2019-04-04T09:37:09.315Z,12.03
2019-04-04T09:39:41.537Z,10.80
2019-04-04T09:42:14.096Z,11.07
2019-04-04T09:44:46.898Z,11.23
2019-04-04T09:47:19.831Z,11.10
2019-04-04T09:49:52.574Z,11.10
2019-04-04T09:52:25.256Z,10.60
2019-04-04T09:54:58.012Z,11.23
2019-04-04T09:57:31.260Z,9.77
2019-04-04T10:00:08.139Z,9.33
2019-04-04T10:02:41.083Z,10.03
2019-04-04T10:05:14.536Z,10.77
2019-04-04T10:07:47.044Z,10.00
2019-04-04T10:10:19.664Z,10.47
2019-04-04T10:12:52.353Z,12.33
2019-04-04T10:15:24.959Z,11.33
2019-04-04T10:17:57.755Z,11.40
2019-04-04T10:20:30.273Z,11.60
2019-04-04T10:23:02.999Z,11.00
2019-04-04T10:25:35.407Z,11.37
2019-04-04T10:28:07.949Z,10.87
2019-04-04T10:30:41.548Z,11.27
2019-04-04T10:33:13.966Z,9.97
2019-04-04T10:35:46.628Z,9.87
2019-04-04T10:38:19.099Z,10.13
2019-04-04T10:40:51.682Z,9.50
2019-04-04T10:43:24.645Z,9.50
2019-04-04T10:45:57.015Z,9.47
2019-04-04T10:48:29.790Z,9.00
2019-04-04T10:51:02.431Z,9.27
2019-04-04T10:53:34.765Z,9.20
2019-04-04T10:56:07.540Z,9.57
2019-04-04T10:58:41.136Z,9.73
2019-04-04T11:01:15.154Z,9.00
2019-04-04T11:03:49.150Z,10.70
2019-04-04T11:06:22.147Z,11.07
2019-04-04T11:08:54.832Z,11.57
2019-04-04T11:11:27.086Z,11.20
2019-04-04T11:14:01.680Z,10.40
2019-04-04T11:16:34.203Z,8.77
2019-04-04T11:19:09.654Z,8.97
2019-04-04T11:21:42.000Z,9.50
2019-04-04T11:24:14.990Z,8.93
2019-04-04T11:26:47.604Z,9.60
2019-04-04T11:29:20.755Z,9.40
2019-04-04T11:31:53.601Z,9.87
2019-04-04T11:34:26.539Z,9.30
2019-04-04T11:36:58.815Z,8.23
2019-04-04T11:39:31.403Z,8.60
2019-04-04T11:42:03.742Z,9.10
2019-04-04T11:44:36.439Z,8.93
2019-04-04T11:47:08.735Z,9.43
2019-04-04T11:49:41.586Z,8.50
2019-04-04T11:52:14.124Z,8.73
2019-04-04T11:54:58.033Z,7.93
2019-04-04T11:57:30.682Z,7.70
2019-04-04T12:00:04.262Z,8.37
2019-04-04T12:02:36.886Z,9.80
2019-04-04T12:05:09.544Z,13.03
2019-04-04T12:07:41.802Z,8.67
2019-04-04T12:10:14.140Z,9.13
2019-04-04T12:12:46.449Z,7.20
2019-04-04T12:15:19.048Z,6.83
2019-04-04T12:17:51.676Z,7.70
2019-04-04T12:20:24.300Z,8.13
2019-04-04T12:22:56.836Z,7.00
2019-04-04T12:25:29.366Z,7.73
2019-04-04T12:28:02.055Z,7.90
2019-04-04T12:30:34.563Z,7.73
2019-04-04T12:33:07.164Z,7.17
2019-04-04T12:35:39.886Z,6.53
2019-04-04T12:38:13.079Z,6.70
2019-04-04T12:40:45.367Z,6.30
2019-04-04T12:43:18.278Z,6.87
2019-04-04T12:45:50.433Z,6.60
2019-04-04T12:48:23.077Z,8.03
2019-04-04T12:50:56.532Z,6.57
2019-04-04T12:53:29.120Z,6.80
2019-04-04T12:56:01.491Z,6.77
2019-04-04T12:58:33.935Z,6.57
2019-04-04T13:01:06.222Z,6.83
2019-04-04T13:03:39.330Z,6.20
2019-04-04T13:06:12.534Z,6.20
2019-04-04T13:08:45.157Z,6.50
2019-04-04T13:11:17.374Z,7.27
2019-04-04T13:13:49.733Z,6.87
2019-04-04T13:16:22.388Z,6.70
2019-04-04T13:18:55.198Z,6.53
2019-04-04T13:21:27.645Z,7.93
2019-04-04T13:23:59.999Z,7.23
2019-04-04T13:26:32.442Z,9.23
2019-04-04T13:29:04.872Z,7.40
2019-04-04T13:31:39.238Z,7.77
2019-04-04T13:34:12.076Z,7.30
2019-04-04T13:36:44.842Z,7.43
2019-04-04T13:39:18.138Z,8.23
2019-04-04T13:41:50.256Z,7.97
2019-04-04T13:44:23.584Z,8.10
2019-04-04T13:46:56.210Z,7.93
2019-04-04T13:49:28.885Z,7.27
2019-04-04T13:52:01.990Z,7.07
2019-04-04T13:54:35.389Z,6.80
2019-04-04T13:57:08.485Z,8.00
2019-04-04T13:59:41.751Z,7.20
2019-04-04T14:02:14.662Z,7.43
2019-04-04T14:04:47.759Z,6.70
2019-04-04T14:07:20.132Z,6.90
2019-04-04T14:09:55.356Z,8.47
2019-04-04T14:12:29.661Z,7.73
2019-04-04T14:15:02.703Z,8.40
2019-04-04T14:17:36.136Z,8.77
2019-04-04T14:20:10.288Z,8.27
2019-04-04T14:22:43.043Z,8.87
2019-04-04T14:25:15.488Z,8.40
2019-04-04T14:27:47.802Z,8.50
2019-04-04T14:30:20.673Z,7.80
2019-04-04T14:32:53.044Z,7.50
2019-04-04T14:35:25.230Z,8.23
2019-04-04T14:37:57.566Z,7.90
2019-04-04T14:40:30.150Z,7.93
2019-04-04T14:43:02.399Z,6.77
2019-04-04T14:45:34.810Z,7.13
2019-04-04T14:48:08.709Z,7.90
2019-04-04T14:50:41.433Z,6.47
2019-04-04T14:53:13.703Z,7.17
2019-04-04T14:55:46.061Z,7.37
2019-04-04T14:58:18.904Z,7.17
2019-04-04T15:00:51.628Z,6.63
2019-04-04T15:03:24.653Z,8.87
2019-04-04T15:05:57.333Z,10.23
2019-04-04T15:08:29.802Z,7.70
2019-04-04T15:11:02.342Z,6.83
2019-04-04T15:13:34.724Z,7.17
2019-04-04T15:16:13.665Z,6.63
2019-04-04T15:18:46.482Z,6.90
2019-04-04T15:21:19.038Z,6.33
2019-04-04T15:23:51.965Z,6.40
2019-04-04T15:26:24.499Z,6.43
2019-04-04T15:28:56.765Z,6.90
2019-04-04T15:31:29.467Z,6.43
2019-04-04T15:34:01.781Z,6.27
2019-04-04T15:36:34.353Z,7.30
2019-04-04T15:39:06.742Z,6.13
2019-04-04T15:41:38.937Z,6.80
2019-04-04T15:44:11.174Z,5.90
2019-04-04T15:46:43.541Z,6.30
2019-04-04T15:49:15.751Z,7.73
2019-04-04T15:51:47.982Z,7.57
2019-04-04T15:54:20.514Z,6.93
2019-04-04T15:56:53.168Z,7.03
2019-04-04T15:59:25.521Z,6.40
2019-04-04T16:01:57.897Z,5.67
2019-04-04T16:04:30.534Z,6.60
2019-04-04T16:07:04.627Z,6.03
2019-04-04T16:09:36.785Z,6.50
2019-04-04T16:12:09.187Z,7.53
2019-04-04T16:14:41.495Z,7.10
2019-04-04T16:17:13.982Z,11.83
2019-04-04T16:19:46.489Z,6.33
2019-04-04T16:22:18.982Z,7.13
2019-04-04T16:24:51.288Z,8.07
2019-04-04T16:27:23.514Z,8.73
2019-04-04T16:29:55.709Z,6.40
2019-04-04T16:32:27.901Z,7.03
2019-04-04T16:35:00.143Z,7.97
2019-04-04T16:37:32.311Z,7.27
2019-04-04T16:40:09.130Z,9.20
2019-04-04T16:42:39.344Z,9.57
2019-04-04T16:45:12.019Z,6.30
2019-04-04T16:47:45.160Z,6.50
2019-04-04T16:50:17.958Z,6.40
2019-04-04T16:52:50.283Z,5.97
2019-04-04T16:55:22.915Z,7.17
2019-04-04T16:57:55.192Z,6.70
2019-04-04T17:00:28.359Z,7.00
2019-04-04T17:03:00.518Z,7.80
2019-04-04T17:05:33.026Z,6.43
2019-04-04T17:08:05.433Z,6.27
2019-04-04T17:10:37.650Z,6.77
2019-04-04T17:13:12.488Z,9.57
2019-04-04T17:15:44.866Z,7.37
2019-04-04T17:18:17.537Z,8.53
2019-04-04T17:20:49.799Z,7.33
2019-04-04T17:23:21.995Z,7.17
2019-04-04T17:25:54.529Z,9.07
2019-04-04T17:28:36.389Z,9.07
2019-04-04T17:31:09.079Z,17.53
2019-04-04T17:33:41.321Z,13.30
2019-04-04T17:36:14.717Z,9.17
2019-04-04T17:38:47.096Z,8.70
2019-04-04T17:41:19.447Z,10.90
2019-04-04T17:43:51.884Z,12.97
2019-04-04T17:46:25.555Z,12.00
2019-04-04T17:48:57.957Z,8.43
2019-04-04T17:51:30.569Z,8.53
2019-04-04T17:54:03.023Z,11.73
2019-04-04T17:56:35.297Z,8.90
2019-04-04T17:59:07.767Z,8.60
2019-04-04T18:01:40.374Z,8.10
2019-04-04T18:04:12.930Z,8.97
2019-04-04T18:06:45.126Z,9.60
2019-04-04T18:09:17.770Z,9.17
2019-04-04T18:11:50.334Z,8.87
2019-04-04T18:14:22.623Z,9.30
2019-04-04T18:16:54.803Z,9.03
2019-04-04T18:19:27.153Z,8.57
2019-04-04T18:21:59.534Z,11.00
2019-04-04T18:24:31.649Z,17.43
2019-04-04T18:27:04.062Z,22.20
2019-04-04T18:29:36.710Z,16.23
2019-04-04T18:32:09.047Z,13.40
2019-04-04T18:34:41.749Z,19.90
2019-04-04T18:37:14.078Z,17.23
2019-04-04T18:39:46.247Z,15.77
2019-04-04T18:42:18.586Z,16.47
2019-04-04T18:44:50.903Z,14.87
2019-04-04T18:47:23.280Z,14.70
2019-04-04T18:49:55.720Z,15.37
2019-04-04T18:52:27.936Z,11.80
2019-04-04T18:55:00.593Z,13.87
2019-04-04T18:57:33.172Z,11.70
2019-04-04T19:00:07.362Z,12.87
2019-04-04T19:02:39.599Z,13.63
2019-04-04T19:05:12.225Z,15.33
2019-04-04T19:07:44.537Z,16.07
2019-04-04T19:10:17.213Z,13.97
2019-04-04T19:12:49.742Z,17.77
2019-04-04T19:15:22.313Z,20.90
2019-04-04T19:17:54.656Z,16.00
2019-04-04T19:20:27.076Z,18.47
2019-04-04T19:22:59.442Z,16.27
2019-04-04T19:25:31.725Z,15.13
2019-04-04T19:28:04.099Z,18.67
2019-04-04T19:30:36.514Z,19.23
2019-04-04T19:33:09.130Z,18.80
2019-04-04T19:35:41.566Z,19.10
2019-04-04T19:38:14.145Z,17.57
2019-04-04T19:40:46.781Z,15.90
2019-04-04T19:43:19.224Z,16.10
2019-04-04T19:45:51.821Z,15.63
2019-04-04T19:48:24.590Z,14.07
2019-04-04T19:50:57.087Z,12.77
2019-04-04T19:53:29.436Z,11.37
2019-04-04T19:56:02.247Z,11.53
2019-04-04T19:58:34.544Z,12.20
2019-04-04T20:01:07.172Z,11.40
2019-04-04T20:03:39.798Z,11.10
2019-04-04T20:06:12.210Z,11.13
2019-04-04T20:08:44.422Z,10.50
2019-04-04T20:11:16.791Z,9.73
2019-04-04T20:13:49.223Z,10.53
2019-04-04T20:16:21.714Z,9.67
2019-04-04T20:18:53.806Z,8.83
2019-04-04T20:21:26.261Z,9.33
2019-04-04T20:23:58.903Z,9.40
2019-04-04T20:26:31.310Z,8.80
2019-04-04T20:29:03.533Z,9.17
2019-04-04T20:31:36.079Z,9.27
2019-04-04T20:34:08.390Z,10.10
2019-04-04T20:36:40.918Z,11.60
2019-04-04T20:39:13.233Z,9.50
2019-04-04T20:41:45.546Z,9.57
2019-04-04T20:44:18.367Z,8.80
2019-04-04T20:46:50.526Z,10.23
2019-04-04T20:49:22.845Z,9.10
2019-04-04T20:51:56.428Z,8.97
2019-04-04T20:54:28.906Z,9.13
2019-04-04T20:57:01.273Z,9.30
2019-04-04T20:59:33.612Z,9.63
2019-04-04T21:02:06.139Z,9.43
2019-04-04T21:04:38.325Z,8.73
2019-04-04T21:07:10.576Z,9.50
2019-04-04T21:09:43.951Z,8.73
2019-04-04T21:12:17.687Z,9.03
2019-04-04T21:14:49.855Z,10.10
2019-04-04T21:17:22.233Z,9.07
2019-04-04T21:19:56.823Z,9.40
2019-04-04T21:22:28.960Z,9.67
2019-04-04T21:25:01.854Z,9.93
2019-04-04T21:27:34.239Z,10.00
2019-04-04T21:30:07.315Z,9.33
2019-04-04T21:32:39.548Z,9.60
2019-04-04T21:35:11.838Z,10.13
2019-04-04T21:37:43.966Z,9.77
2019-04-04T21:40:16.160Z,10.10
2019-04-04T21:42:48.405Z,10.33
2019-04-04T21:45:20.783Z,10.27
2019-04-04T21:47:52.909Z,10.80
2019-04-04T21:50:25.161Z,10.70
2019-04-04T21:52:57.722Z,10.20
2019-04-04T21:55:29.938Z,11.60
2019-04-04T21:58:02.076Z,11.33
2019-04-04T22:00:41.117Z,11.60
2019-04-04T22:03:13.366Z,10.93
2019-04-04T22:05:45.746Z,11.20
2019-04-04T22:08:18.269Z,10.77
2019-04-04T22:10:50.561Z,10.63
2019-04-04T22:13:22.845Z,10.67
2019-04-04T22:15:55.313Z,11.17
2019-04-04T22:18:27.718Z,10.23
2019-04-04T22:21:00.060Z,10.83
2019-04-04T22:23:32.180Z,10.43
2019-04-04T22:26:04.800Z,11.07
2019-04-04T22:28:36.943Z,11.27
2019-04-04T22:31:09.259Z,10.60
2019-04-04T22:33:41.612Z,11.40
2019-04-04T22:36:13.837Z,11.97
2019-04-04T22:38:46.310Z,10.67
2019-04-04T22:41:18.500Z,11.60
2019-04-04T22:44:03.010Z,10.97
2019-04-04T22:46:25.005Z,10.63
2019-04-04T22:48:57.300Z,10.97
2019-04-04T22:51:29.543Z,11.40
2019-04-04T22:54:02.122Z,11.07
2019-04-04T22:56:34.902Z,10.97
2019-04-04T22:59:07.086Z,10.50
2019-04-04T23:01:39.430Z,10.63
2019-04-04T23:04:11.766Z,10.93
2019-04-04T23:06:44.143Z,10.90
2019-04-04T23:09:16.214Z,10.13
2019-04-04T23:11:48.464Z,10.00
2019-04-04T23:14:20.942Z,10.57
2019-04-04T23:16:53.179Z,10.37
2019-04-04T23:19:25.434Z,10.20
2019-04-04T23:21:58.191Z,10.43
2019-04-04T23:24:30.378Z,10.43
2019-04-04T23:27:02.805Z,11.73
2019-04-04T23:29:34.994Z,12.27
2019-04-04T23:32:07.477Z,11.07
2019-04-04T23:34:39.725Z,11.37
2019-04-04T23:37:11.811Z,11.80
2019-04-04T23:39:44.211Z,11.07
2019-04-04T23:42:16.509Z,11.07
2019-04-04T23:45:00.242Z,10.97
2019-04-04T23:47:22.780Z,11.47
2019-04-04T23:49:55.006Z,11.57
2019-04-04T23:52:27.074Z,12.13
2019-04-04T23:54:59.218Z,11.87
2019-04-04T23:57:31.784Z,11.83
